createdAt,value
2018-04-11T00:01:44.298Z,96.40
2018-04-11T00:04:11.732Z,96.60
2018-04-11T00:06:39.192Z,96.70
2018-04-11T00:09:06.783Z,96.60
2018-04-11T00:11:34.265Z,96.60
2018-04-11T00:14:01.754Z,96.70
2018-04-11T00:16:29.214Z,96.90
2018-04-11T00:18:56.670Z,97.10
2018-04-11T00:21:24.187Z,97.10
2018-04-11T00:23:51.781Z,97.20
2018-04-11T00:26:19.225Z,97.40
2018-04-11T00:28:46.687Z,97.50
2018-04-11T00:31:14.178Z,97.50
2018-04-11T00:33:42.866Z,97.60
2018-04-11T00:36:10.302Z,97.60
2018-04-11T00:38:37.752Z,97.70
2018-04-11T00:41:05.263Z,97.70
2018-04-11T00:43:32.765Z,97.80
2018-04-11T00:46:00.354Z,97.90
2018-04-11T00:48:27.796Z,98.00
2018-04-11T00:50:55.251Z,98.00
2018-04-11T00:53:26.538Z,98.20
2018-04-11T00:55:53.997Z,98.30
2018-04-11T00:58:21.444Z,98.30
2018-04-11T01:00:48.895Z,98.30
2018-04-11T01:03:16.390Z,98.40
2018-04-11T01:05:43.839Z,98.60
2018-04-11T01:08:11.598Z,98.70
2018-04-11T01:10:39.040Z,98.70
2018-04-11T01:13:06.496Z,98.70
2018-04-11T01:15:33.969Z,98.70
2018-04-11T01:18:01.417Z,98.60
2018-04-11T01:20:28.868Z,98.40
2018-04-11T01:22:56.340Z,98.40
2018-04-11T01:25:23.804Z,98.40
2018-04-11T01:27:51.253Z,98.70
2018-04-11T01:30:18.718Z,98.80
2018-04-11T01:32:46.162Z,98.90
2018-04-11T01:35:13.671Z,99.00
2018-04-11T01:37:41.133Z,99.20
2018-04-11T01:40:08.574Z,99.20
2018-04-11T01:42:36.074Z,99.30
2018-04-11T01:45:03.543Z,99.20
2018-04-11T01:47:31.013Z,99.30
2018-04-11T01:49:58.451Z,99.30
2018-04-11T01:52:25.947Z,99.30
2018-04-11T01:54:53.396Z,99.30
2018-04-11T01:57:20.835Z,99.20
2018-04-11T01:59:48.286Z,99.40
2018-04-11T02:02:15.747Z,99.50
2018-04-11T02:04:43.195Z,99.80
2018-04-11T02:07:10.659Z,99.80
2018-04-11T02:09:38.171Z,99.70
2018-04-11T02:12:05.565Z,99.70
2018-04-11T02:14:33.023Z,99.80
2018-04-11T02:17:00.462Z,99.80
2018-04-11T02:19:27.915Z,99.90
2018-04-11T02:21:55.383Z,99.90
2018-04-11T02:24:22.840Z,99.90
2018-04-11T02:26:50.278Z,99.90
2018-04-11T02:29:17.734Z,99.90
2018-04-11T02:31:45.197Z,99.90
2018-04-11T02:34:12.636Z,99.90
2018-04-11T02:36:40.089Z,99.90
2018-04-11T02:39:07.528Z,99.90
2018-04-11T02:41:35.025Z,99.90
2018-04-11T02:44:02.457Z,99.90
2018-04-11T02:46:29.918Z,99.90
2018-04-11T02:49:04.676Z,99.90
2018-04-11T02:51:32.134Z,99.90
2018-04-11T02:53:59.572Z,99.90
2018-04-11T02:56:27.032Z,99.90
2018-04-11T02:58:54.481Z,99.90
2018-04-11T03:01:21.976Z,99.90
2018-04-11T03:03:49.423Z,99.90
2018-04-11T03:06:16.872Z,99.90
2018-04-11T03:08:44.325Z,99.90
2018-04-11T03:11:11.801Z,99.90
2018-04-11T03:13:39.263Z,99.90
2018-04-11T03:16:06.711Z,99.90
2018-04-11T03:21:06.439Z,99.90
2018-04-11T03:23:33.892Z,99.90
2018-04-11T03:26:01.337Z,99.90
2018-04-11T03:28:28.775Z,99.90
2018-04-11T03:30:56.248Z,99.90
2018-04-11T03:33:23.681Z,99.90
2018-04-11T03:35:51.145Z,99.90
2018-04-11T03:38:18.583Z,99.90
2018-04-11T03:40:46.075Z,99.90
2018-04-11T03:43:13.555Z,99.90
2018-04-11T03:45:41.016Z,99.90
2018-04-11T03:48:08.477Z,99.90
2018-04-11T03:50:35.940Z,99.90
2018-04-11T03:53:03.402Z,99.90
2018-04-11T03:55:30.848Z,99.90
2018-04-11T03:57:58.287Z,99.90
2018-04-11T04:00:25.749Z,99.90
2018-04-11T04:02:53.204Z,99.90
2018-04-11T04:05:20.648Z,99.90
2018-04-11T04:07:48.173Z,99.90
2018-04-11T04:10:15.578Z,99.90
2018-04-11T04:12:43.014Z,99.90
2018-04-11T04:15:22.278Z,99.90
2018-04-11T04:18:01.600Z,99.90
2018-04-11T04:20:35.841Z,99.90
2018-04-11T04:23:03.276Z,99.90
2018-04-11T04:25:30.715Z,99.90
2018-04-11T04:27:58.175Z,99.90
2018-04-11T04:30:25.614Z,99.90
2018-04-11T04:32:53.063Z,99.90
2018-04-11T04:35:20.516Z,99.90
2018-04-11T04:37:47.960Z,99.90
2018-04-11T04:40:15.412Z,99.90
2018-04-11T04:42:42.854Z,99.90
2018-04-11T04:45:10.292Z,99.90
2018-04-11T04:47:39.227Z,99.90
2018-04-11T04:50:06.676Z,99.90
2018-04-11T04:52:34.191Z,99.90
2018-04-11T04:55:01.868Z,99.90
2018-04-11T04:57:29.323Z,99.90
2018-04-11T04:59:56.761Z,99.90
2018-04-11T05:02:24.204Z,99.90
2018-04-11T05:04:51.660Z,99.90
2018-04-11T05:07:19.100Z,99.90
2018-04-11T05:09:46.541Z,99.90
2018-04-11T05:12:14.018Z,99.90
2018-04-11T05:14:41.451Z,99.90
2018-04-11T05:17:08.896Z,99.90
2018-04-11T05:19:36.359Z,99.90
2018-04-11T05:22:03.838Z,99.90
2018-04-11T05:24:31.288Z,99.90
2018-04-11T05:26:58.743Z,99.90
2018-04-11T05:29:26.188Z,99.90
2018-04-11T05:31:53.632Z,99.90
2018-04-11T05:34:21.084Z,99.90
2018-04-11T05:36:48.548Z,99.90
2018-04-11T05:39:15.988Z,99.90
2018-04-11T05:41:44.216Z,99.90
2018-04-11T05:44:11.648Z,99.90
2018-04-11T05:46:39.087Z,99.90
2018-04-11T05:49:06.549Z,99.90
2018-04-11T05:51:34.787Z,99.90
2018-04-11T05:54:02.263Z,99.90
2018-04-11T05:56:29.720Z,99.90
2018-04-11T05:58:57.174Z,99.90
2018-04-11T06:01:24.620Z,99.90
2018-04-11T06:03:52.092Z,99.90
2018-04-11T06:06:19.539Z,99.90
2018-04-11T06:08:49.372Z,99.90
2018-04-11T06:11:16.852Z,99.90
2018-04-11T06:13:44.283Z,99.90
2018-04-11T06:16:11.766Z,99.90
2018-04-11T06:18:40.334Z,99.90
2018-04-11T06:21:09.288Z,99.90
2018-04-11T06:23:36.719Z,99.80
2018-04-11T06:26:04.176Z,99.70
2018-04-11T06:28:31.616Z,99.80
2018-04-11T06:30:59.190Z,99.80
2018-04-11T06:33:26.652Z,99.70
2018-04-11T06:35:54.091Z,99.80
2018-04-11T06:38:21.523Z,99.80
2018-04-11T06:40:48.975Z,99.90
2018-04-11T06:43:17.195Z,99.50
2018-04-11T06:45:44.631Z,99.40
2018-04-11T06:48:12.109Z,99.50
2018-04-11T06:50:39.539Z,99.60
2018-04-11T06:53:06.988Z,99.80
2018-04-11T06:55:34.440Z,99.90
2018-04-11T06:58:02.006Z,99.90
2018-04-11T07:00:29.491Z,99.70
2018-04-11T07:02:56.972Z,99.70
2018-04-11T07:05:24.404Z,99.70
2018-04-11T07:07:51.847Z,99.90
2018-04-11T07:10:19.300Z,99.70
2018-04-11T07:12:46.883Z,99.80
2018-04-11T07:15:14.492Z,99.70
2018-04-11T07:17:41.943Z,99.50
2018-04-11T07:20:09.647Z,99.60
2018-04-11T07:22:37.103Z,99.70
2018-04-11T07:25:04.544Z,99.90
2018-04-11T07:27:31.971Z,99.40
2018-04-11T07:29:59.423Z,99.10
2018-04-11T07:32:26.863Z,98.60
2018-04-11T07:34:54.329Z,98.70
2018-04-11T07:37:21.967Z,98.80
2018-04-11T07:39:49.426Z,98.80
2018-04-11T07:42:16.881Z,98.50
2018-04-11T07:44:44.315Z,98.10
2018-04-11T07:47:11.837Z,97.90
2018-04-11T07:49:39.300Z,97.50
2018-04-11T07:52:06.734Z,97.80
2018-04-11T07:54:34.205Z,98.10
2018-04-11T07:57:01.634Z,98.10
2018-04-11T07:59:29.076Z,98.20
2018-04-11T08:01:56.511Z,97.70
2018-04-11T08:04:23.958Z,97.80
2018-04-11T08:06:52.216Z,96.70
2018-04-11T08:09:19.650Z,96.70
2018-04-11T08:11:47.121Z,95.80
2018-04-11T08:14:14.565Z,95.90
2018-04-11T08:16:42.012Z,95.90
2018-04-11T08:19:09.472Z,96.00
2018-04-11T08:21:36.916Z,95.70
2018-04-11T08:24:03.888Z,94.40
2018-04-11T08:26:31.322Z,93.60
2018-04-11T08:28:58.751Z,93.00
2018-04-11T08:31:26.246Z,92.90
2018-04-11T08:33:53.691Z,93.30
2018-04-11T08:36:21.147Z,93.30
2018-04-11T08:38:48.583Z,93.20
2018-04-11T08:41:16.044Z,92.90
2018-04-11T08:43:43.499Z,93.40
2018-04-11T08:46:10.937Z,93.60
2018-04-11T08:48:39.815Z,93.30
2018-04-11T08:51:07.246Z,93.20
2018-04-11T08:53:34.676Z,92.40
2018-04-11T08:56:02.133Z,92.20
2018-04-11T08:58:29.570Z,92.20
2018-04-11T09:00:57.024Z,91.90
2018-04-11T09:03:24.857Z,91.50
2018-04-11T09:05:52.594Z,91.30
2018-04-11T09:08:20.043Z,91.30
2018-04-11T09:10:47.495Z,91.40
2018-04-11T09:13:14.951Z,91.20
2018-04-11T09:15:43.155Z,90.90
2018-04-11T09:18:10.583Z,90.90
2018-04-11T09:20:38.041Z,90.80
2018-04-11T09:23:05.471Z,90.10
2018-04-11T09:25:32.928Z,89.60
2018-04-11T09:28:00.372Z,89.90
2018-04-11T09:30:27.810Z,88.90
2018-04-11T09:32:55.321Z,88.70
2018-04-11T09:35:22.762Z,88.10
2018-04-11T09:37:50.217Z,87.30
2018-04-11T09:40:21.580Z,84.20
2018-04-11T09:42:49.010Z,83.50
2018-04-11T09:45:16.457Z,82.40
2018-04-11T09:47:44.662Z,81.60
2018-04-11T09:50:12.107Z,81.60
2018-04-11T09:52:39.542Z,80.70
2018-04-11T09:55:06.975Z,79.70
2018-04-11T09:57:34.441Z,79.10
2018-04-11T10:00:01.873Z,78.20
2018-04-11T10:02:29.313Z,77.10
2018-04-11T10:04:56.995Z,77.20
2018-04-11T10:07:24.440Z,72.10
2018-04-11T10:09:51.888Z,67.70
2018-04-11T10:12:19.693Z,60.80
2018-04-11T10:14:47.133Z,57.40
2018-04-11T10:17:14.619Z,56.30
2018-04-11T10:19:42.062Z,55.10
2018-04-11T10:22:09.521Z,54.00
2018-04-11T10:24:36.956Z,52.90
2018-04-11T10:27:05.165Z,51.20
2018-04-11T10:29:32.959Z,51.10
2018-04-11T10:32:00.620Z,51.10
2018-04-11T10:34:28.063Z,48.60
2018-04-11T10:36:55.516Z,47.90
2018-04-11T10:39:22.942Z,46.80
2018-04-11T10:41:50.884Z,47.30
2018-04-11T10:44:18.323Z,46.80
2018-04-11T10:46:46.065Z,46.10
2018-04-11T10:49:13.496Z,46.40
2018-04-11T10:51:41.064Z,46.50
2018-04-11T10:54:08.520Z,46.20
2018-04-11T10:56:35.955Z,45.50
2018-04-11T10:59:03.413Z,44.00
2018-04-11T11:01:30.868Z,43.80
2018-04-11T11:03:58.327Z,42.20
2018-04-11T11:06:25.994Z,41.80
2018-04-11T11:08:53.572Z,42.40
2018-04-11T11:11:21.036Z,42.80
2018-04-11T11:13:48.499Z,42.60
2018-04-11T11:16:15.955Z,40.70
2018-04-11T11:18:46.836Z,39.50
2018-04-11T11:21:14.533Z,39.30
2018-04-11T11:23:42.324Z,39.00
2018-04-11T11:26:09.762Z,38.70
2018-04-11T11:28:37.201Z,36.40
2018-04-11T11:31:04.739Z,36.60
2018-04-11T11:33:32.175Z,36.30
2018-04-11T11:35:59.615Z,35.60
2018-04-11T11:38:27.059Z,35.40
2018-04-11T11:40:54.521Z,34.30
2018-04-11T11:43:21.964Z,33.00
2018-04-11T11:45:49.711Z,33.80
2018-04-11T11:48:17.160Z,33.70
2018-04-11T11:50:44.601Z,34.30
2018-04-11T11:53:12.037Z,34.10
2018-04-11T11:55:39.488Z,33.60
2018-04-11T11:58:07.013Z,33.30
2018-04-11T12:00:34.459Z,32.20
2018-04-11T12:03:01.891Z,32.10
2018-04-11T12:05:29.344Z,30.30
2018-04-11T12:07:56.932Z,31.20
2018-04-11T12:10:24.379Z,32.60
2018-04-11T12:12:51.835Z,32.40
2018-04-11T12:15:19.611Z,32.20
2018-04-11T12:17:47.220Z,33.30
2018-04-11T12:20:14.832Z,32.80
2018-04-11T12:22:42.251Z,31.80
2018-04-11T12:25:09.858Z,32.10
2018-04-11T12:27:37.248Z,32.50
2018-04-11T12:30:04.713Z,31.00
2018-04-11T12:32:32.248Z,30.30
2018-04-11T12:34:59.705Z,30.80
2018-04-11T12:37:27.188Z,31.60
2018-04-11T12:39:54.766Z,29.80
2018-04-11T12:42:22.199Z,30.30
2018-04-11T12:44:49.650Z,30.00
2018-04-11T12:47:17.088Z,29.30
2018-04-11T12:49:44.733Z,29.70
2018-04-11T12:52:12.560Z,29.80
2018-04-11T12:54:39.993Z,29.20
2018-04-11T12:57:07.443Z,28.40
2018-04-11T12:59:35.648Z,28.70
2018-04-11T13:02:03.109Z,28.60
2018-04-11T13:04:30.551Z,28.30
2018-04-11T13:06:58.182Z,28.50
2018-04-11T13:09:26.402Z,28.70
2018-04-11T13:11:56.724Z,28.70
2018-04-11T13:14:24.238Z,28.00
2018-04-11T13:16:51.695Z,28.00
2018-04-11T13:19:19.257Z,28.50
2018-04-11T13:21:46.710Z,28.20
2018-04-11T13:24:14.147Z,27.80
2018-04-11T13:26:41.578Z,28.50
2018-04-11T13:29:09.046Z,28.30
2018-04-11T13:31:36.903Z,26.00
2018-04-11T13:34:04.324Z,27.70
2018-04-11T13:36:36.783Z,28.50
2018-04-11T13:39:04.237Z,27.80
2018-04-11T13:41:31.758Z,27.10
2018-04-11T13:43:59.198Z,26.10
2018-04-11T13:46:26.657Z,26.50
2018-04-11T13:48:54.365Z,26.40
2018-04-11T13:51:22.589Z,26.50
2018-04-11T13:53:50.025Z,26.40
2018-04-11T13:56:17.738Z,25.90
2018-04-11T13:58:45.200Z,25.90
2018-04-11T14:01:12.652Z,26.70
2018-04-11T14:03:40.647Z,26.90
2018-04-11T14:06:08.069Z,26.50
2018-04-11T14:08:35.498Z,26.10
2018-04-11T14:11:02.964Z,26.50
2018-04-11T14:13:30.392Z,26.80
2018-04-11T14:15:58.161Z,27.10
2018-04-11T14:18:25.804Z,26.50
2018-04-11T14:20:53.246Z,26.30
2018-04-11T14:23:21.031Z,26.60
2018-04-11T14:25:48.483Z,26.30
2018-04-11T14:28:15.943Z,26.60
2018-04-11T14:30:43.427Z,27.30
2018-04-11T14:33:10.873Z,27.90
2018-04-11T14:35:38.311Z,27.50
2018-04-11T14:38:05.748Z,27.90
2018-04-11T14:40:33.193Z,27.90
2018-04-11T14:43:00.641Z,28.20
2018-04-11T14:45:28.082Z,28.30
2018-04-11T14:47:55.547Z,27.90
2018-04-11T14:50:22.974Z,28.30
2018-04-11T14:52:50.684Z,28.40
2018-04-11T14:55:18.140Z,28.70
2018-04-11T14:57:45.573Z,28.90
2018-04-11T15:00:13.459Z,28.80
2018-04-11T15:02:40.931Z,29.80
2018-04-11T15:05:08.475Z,30.90
2018-04-11T15:07:36.020Z,32.80
2018-04-11T15:10:03.463Z,34.50
2018-04-11T15:12:30.920Z,36.00
2018-04-11T15:14:58.596Z,36.30
2018-04-11T15:17:26.133Z,36.50
2018-04-11T15:19:53.567Z,37.20
2018-04-11T15:22:21.049Z,37.70
2018-04-11T15:24:48.495Z,37.30
2018-04-11T15:27:15.940Z,37.10
2018-04-11T15:29:43.436Z,36.50
2018-04-11T15:32:11.268Z,36.10
2018-04-11T15:34:39.137Z,36.00
2018-04-11T15:37:06.605Z,36.00
2018-04-11T15:39:34.050Z,36.10
2018-04-11T15:42:01.521Z,37.10
2018-04-11T15:44:29.184Z,37.70
2018-04-11T15:46:56.616Z,38.50
2018-04-11T15:49:24.059Z,38.30
2018-04-11T15:51:51.491Z,38.10
2018-04-11T15:54:18.940Z,38.30
2018-04-11T15:56:46.595Z,38.50
2018-04-11T15:59:14.043Z,38.60
2018-04-11T16:01:41.485Z,39.10
2018-04-11T16:04:08.927Z,39.50
2018-04-11T16:06:36.375Z,40.00
2018-04-11T16:09:04.589Z,40.30
2018-04-11T16:11:32.034Z,40.30
2018-04-11T16:14:00.319Z,40.40
2018-04-11T16:16:28.524Z,41.20
2018-04-11T16:18:56.014Z,41.10
2018-04-11T16:21:23.462Z,41.50
2018-04-11T16:23:50.977Z,42.20
2018-04-11T16:26:19.203Z,43.90
2018-04-11T16:28:46.981Z,43.80
2018-04-11T16:31:14.499Z,44.50
2018-04-11T16:33:44.177Z,45.20
2018-04-11T16:36:11.613Z,45.20
2018-04-11T16:38:39.099Z,45.90
2018-04-11T16:41:06.624Z,46.40
2018-04-11T16:43:34.096Z,47.00
2018-04-11T16:46:01.541Z,47.40
2018-04-11T16:48:29.032Z,47.90
2018-04-11T16:50:56.479Z,48.30
2018-04-11T16:53:23.922Z,48.90
2018-04-11T16:55:51.382Z,49.40
2018-04-11T16:58:18.834Z,50.40
2018-04-11T17:00:46.267Z,50.30
2018-04-11T17:03:13.720Z,50.40
2018-04-11T17:05:41.160Z,50.90
2018-04-11T17:08:08.595Z,51.50
2018-04-11T17:10:36.035Z,51.80
2018-04-11T17:13:03.637Z,52.00
2018-04-11T17:15:31.090Z,52.20
2018-04-11T17:17:58.532Z,52.50
2018-04-11T17:20:38.003Z,52.80
2018-04-11T17:23:17.230Z,53.20
2018-04-11T17:25:56.495Z,53.70
2018-04-11T17:28:35.804Z,53.90
2018-04-11T17:31:26.927Z,54.50
2018-04-11T17:33:54.356Z,54.80
2018-04-11T17:36:21.816Z,55.40
2018-04-11T17:38:49.342Z,55.80
2018-04-11T17:41:16.790Z,56.20
2018-04-11T17:43:44.229Z,56.60
2018-04-11T17:46:11.668Z,57.20
2018-04-11T17:48:46.804Z,57.60
2018-04-11T17:51:14.250Z,57.90
2018-04-11T17:53:41.685Z,58.50
2018-04-11T17:56:09.133Z,58.80
2018-04-11T17:58:36.807Z,59.30
2018-04-11T18:01:04.279Z,59.80
2018-04-11T18:03:31.745Z,60.50
2018-04-11T18:05:59.198Z,61.00
2018-04-11T18:08:26.684Z,61.70
2018-04-11T18:10:54.095Z,62.20
2018-04-11T18:13:21.545Z,62.90
2018-04-11T18:15:48.979Z,63.50
2018-04-11T18:18:17.192Z,64.40
2018-04-11T18:20:44.940Z,64.30
2018-04-11T18:23:12.388Z,64.90
2018-04-11T18:25:39.842Z,65.50
2018-04-11T18:28:07.279Z,66.10
2018-04-11T18:30:34.722Z,66.80
2018-04-11T18:33:02.201Z,67.30
2018-04-11T18:35:29.620Z,67.90
2018-04-11T18:37:57.360Z,68.30
2018-04-11T18:40:24.808Z,69.00
2018-04-11T18:42:52.240Z,69.30
2018-04-11T18:45:19.675Z,70.00
2018-04-11T18:47:47.278Z,70.40
2018-04-11T18:50:14.739Z,70.90
2018-04-11T18:52:42.165Z,71.30
2018-04-11T18:55:09.869Z,72.00
2018-04-11T18:57:37.384Z,72.40
2018-04-11T19:00:04.828Z,72.90
2018-04-11T19:02:32.317Z,74.30
2018-04-11T19:05:00.003Z,74.40
2018-04-11T19:07:27.515Z,75.10
2018-04-11T19:09:54.917Z,75.80
2018-04-11T19:12:23.201Z,76.70
2018-04-11T19:14:50.636Z,77.10
2018-04-11T19:17:18.140Z,77.70
2018-04-11T19:19:45.684Z,78.30
2018-04-11T19:22:13.133Z,78.80
2018-04-11T19:24:40.633Z,79.20
2018-04-11T19:27:08.082Z,79.40
2018-04-11T19:29:35.536Z,80.00
2018-04-11T19:32:03.001Z,80.50
2018-04-11T19:34:30.435Z,81.00
2018-04-11T19:36:57.895Z,81.50
2018-04-11T19:39:25.361Z,82.00
2018-04-11T19:41:53.065Z,82.40
2018-04-11T19:44:20.564Z,82.60
2018-04-11T19:46:47.964Z,83.10
2018-04-11T19:49:15.407Z,83.40
2018-04-11T19:51:42.874Z,83.70
2018-04-11T19:54:10.564Z,84.10
2018-04-11T19:56:38.020Z,84.60
2018-04-11T19:59:05.473Z,84.80
2018-04-11T20:01:32.923Z,85.20
2018-04-11T20:04:00.405Z,85.50
2018-04-11T20:06:27.840Z,86.00
2018-04-11T20:08:55.304Z,86.20
2018-04-11T20:11:22.761Z,86.60
2018-04-11T20:13:50.196Z,86.70
2018-04-11T20:16:17.640Z,87.00
2018-04-11T20:18:46.148Z,87.40
2018-04-11T20:21:13.585Z,87.60
2018-04-11T20:23:41.036Z,87.90
2018-04-11T20:26:08.476Z,88.20
2018-04-11T20:28:35.936Z,88.30
2018-04-11T20:31:03.558Z,88.50
2018-04-11T20:33:30.997Z,88.60
2018-04-11T20:35:59.229Z,89.50
2018-04-11T20:38:26.660Z,88.60
2018-04-11T20:40:54.104Z,88.40
2018-04-11T20:43:21.547Z,88.30
2018-04-11T20:45:48.991Z,88.30
2018-04-11T20:48:16.479Z,88.20
2018-04-11T20:50:43.907Z,88.10
2018-04-11T20:53:11.604Z,87.90
2018-04-11T20:55:39.038Z,87.90
2018-04-11T20:58:06.661Z,87.80
2018-04-11T21:00:34.075Z,87.60
2018-04-11T21:03:01.508Z,87.60
2018-04-11T21:05:28.994Z,87.40
2018-04-11T21:07:56.431Z,87.30
2018-04-11T21:10:23.873Z,87.10
2018-04-11T21:12:51.321Z,87.00
2018-04-11T21:15:18.776Z,86.80
2018-04-11T21:17:46.220Z,86.80
2018-04-11T21:20:14.432Z,87.10
2018-04-11T21:22:41.860Z,87.00
2018-04-11T21:25:09.307Z,87.10
2018-04-11T21:27:36.823Z,87.10
2018-04-11T21:30:04.203Z,87.00
2018-04-11T21:32:31.643Z,86.80
2018-04-11T21:34:59.079Z,86.60
2018-04-11T21:37:26.530Z,86.50
2018-04-11T21:39:53.956Z,86.40
2018-04-11T21:42:21.509Z,86.40
2018-04-11T21:44:49.067Z,86.30
2018-04-11T21:47:16.510Z,86.20
2018-04-11T21:49:44.107Z,86.20
2018-04-11T21:52:11.540Z,86.20
2018-04-11T21:54:38.994Z,86.20
2018-04-11T21:57:06.425Z,86.20
2018-04-11T21:59:33.972Z,86.30
2018-04-11T22:02:01.443Z,86.20
2018-04-11T22:04:28.872Z,86.30
2018-04-11T22:06:56.431Z,86.40
2018-04-11T22:09:23.880Z,86.40
2018-04-11T22:11:51.327Z,86.50
2018-04-11T22:14:19.045Z,86.50
2018-04-11T22:16:46.487Z,86.60
2018-04-11T22:19:13.950Z,86.70
2018-04-11T22:21:41.401Z,86.70
2018-04-11T22:24:08.838Z,86.70
2018-04-11T22:26:36.301Z,86.70
2018-04-11T22:29:03.743Z,86.70
2018-04-11T22:31:31.224Z,86.80
2018-04-11T22:33:58.686Z,87.00
2018-04-11T22:36:26.110Z,87.00
2018-04-11T22:38:53.563Z,87.10
2018-04-11T22:41:21.016Z,87.30
2018-04-11T22:43:48.472Z,87.50
2018-04-11T22:46:15.919Z,87.70
2018-04-11T22:48:46.727Z,87.90
2018-04-11T22:51:14.173Z,88.30
2018-04-11T22:53:41.599Z,88.60
2018-04-11T22:56:09.049Z,88.90
2018-04-11T22:58:36.488Z,89.10
2018-04-11T23:01:03.917Z,89.40
2018-04-11T23:03:31.376Z,89.70
2018-04-11T23:05:58.837Z,90.00
2018-04-11T23:08:26.294Z,90.10
2018-04-11T23:10:54.491Z,90.20
2018-04-11T23:13:21.923Z,90.20
2018-04-11T23:15:49.387Z,90.30
2018-04-11T23:18:16.824Z,90.40
2018-04-11T23:20:45.039Z,90.50
2018-04-11T23:23:12.535Z,90.50
2018-04-11T23:25:39.959Z,90.60
2018-04-11T23:28:07.420Z,90.70
2018-04-11T23:30:34.856Z,90.80
2018-04-11T23:33:02.346Z,90.90
2018-04-11T23:35:29.779Z,90.90
2018-04-11T23:37:57.216Z,91.00
2018-04-11T23:40:24.663Z,91.10
2018-04-11T23:42:52.107Z,91.20
2018-04-11T23:45:19.568Z,91.40
2018-04-11T23:47:47.004Z,91.40
2018-04-11T23:50:14.477Z,91.60
2018-04-11T23:52:42.004Z,91.60
2018-04-11T23:55:09.440Z,91.70
2018-04-11T23:57:36.887Z,91.80
